Time;durP1;ratioP1;P1;durP2;ratioP2;P2;SDS_P1;SDS_P2;PMS_P1;PMS_P2;Temp;Humidity;BMP_temperature;BMP_pressure;BME280_temperature;BME280_humidity;BME280_pressure;Samples;Min_cycle;Max_cycle;Signal;HPM_P1;HPM_P2
2024/03/02 00:00:11;;;;;;;61.88;27.67;;;;;;;8.15;100.00;99974.13;5009334;28;20037;-73
2024/03/02 00:02:44;;;;;;;61.63;28.25;;;;;;;8.14;100.00;99948.50;5008148;28;20030;-73
2024/03/02 00:05:12;;;;;;;59.15;27.63;;;;;;;8.00;100.00;99950.81;5017223;28;20033;-73
2024/03/02 00:07:41;;;;;;;67.28;29.15;;;;;;;8.07;100.00;99972.25;5015599;28;20033;-73
2024/03/02 00:10:12;;;;;;;58.60;28.45;;;;;;;8.01;100.00;99933.88;4997679;28;20048;-73
2024/03/02 00:12:38;;;;;;;63.50;29.63;;;;;;;8.08;100.00;99954.47;5008697;28;20358;-73
2024/03/02 00:15:21;;;;;;;;;;;;;;;8.11;100.00;99957.66;5006568;28;20080;-73
2024/03/02 00:17:53;;;;;;;65.38;28.17;;;;;;;8.09;100.00;99921.59;4990993;28;19921;-73
2024/03/02 00:20:22;;;;;;;66.05;30.63;;;;;;;8.00;100.00;99926.88;5008679;28;20073;-73
2024/03/02 00:22:48;;;;;;;64.97;30.73;;;;;;;8.03;100.00;99937.22;5007132;28;20041;-73
2024/03/02 00:25:13;;;;;;;60.05;28.00;;;;;;;8.23;100.00;99958.97;5007285;28;20029;-73
2024/03/02 00:27:40;;;;;;;65.03;31.30;;;;;;;8.12;100.00;99926.56;5013097;28;20128;-73
2024/03/02 00:30:32;;;;;;;55.42;28.73;;;;;;;8.10;100.00;99940.03;5024223;28;20448;-73
2024/03/02 00:32:59;;;;;;;63.30;30.58;;;;;;;8.30;100.00;99945.84;5008779;28;20049;-73
2024/03/02 00:35:24;;;;;;;65.00;28.90;;;;;;;8.23;100.00;99905.78;4990485;28;20071;-73
2024/03/02 00:37:49;;;;;;;62.30;29.97;;;;;;;8.24;100.00;99901.28;5017309;28;20038;-73
2024/03/02 00:40:19;;;;;;;76.40;31.20;;;;;;;8.29;100.00;99895.47;5015654;28;20096;-73
2024/03/02 00:42:44;;;;;;;61.88;29.25;;;;;;;8.33;100.00;99892.31;5015284;28;20500;-72
2024/03/02 00:45:10;;;;;;;59.17;28.13;;;;;;;8.31;100.00;99886.34;5018077;28;20034;-73
2024/03/02 00:47:39;;;;;;;68.75;31.80;;;;;;;8.04;100.00;99898.97;5010965;28;20022;-73
2024/03/02 00:50:06;;;;;;;62.13;30.33;;;;;;;7.91;100.00;99911.94;5012884;28;20400;-72
2024/03/02 00:52:32;;;;;;;65.95;31.48;;;;;;;8.08;100.00;99935.88;4996846;28;20673;-73
2024/03/02 00:54:58;;;;;;;64.03;29.70;;;;;;;8.23;100.00;99950.16;5014800;28;20037;-72
2024/03/02 00:57:25;;;;;;;66.80;31.52;;;;;;;8.12;100.00;99913.28;5016662;28;20079;-75
2024/03/02 00:59:51;;;;;;;65.25;32.33;;;;;;;8.04;100.00;99920.25;5014706;28;20033;-72
2024/03/02 01:02:17;;;;;;;70.88;31.90;;;;;;;8.10;100.00;99928.56;5011186;28;20203;-72
2024/03/02 01:04:42;;;;;;;65.07;30.30;;;;;;;8.07;100.00;99920.91;5009316;28;20036;-72
2024/03/02 01:07:07;;;;;;;71.63;31.47;;;;;;;7.89;100.00;99913.94;4987977;28;20030;-73
2024/03/02 01:09:33;;;;;;;74.80;31.50;;;;;;;7.76;100.00;99924.22;5020237;28;20057;-72
2024/03/02 01:11:58;;;;;;;64.70;30.03;;;;;;;7.84;100.00;99942.81;5006387;28;20149;-74
2024/03/02 01:14:23;;;;;;;70.88;31.95;;;;;;;7.92;100.00;99955.31;5013228;28;20040;-74
2024/03/02 01:16:49;;;;;;;71.73;32.53;;;;;;;7.90;100.00;99947.50;5015029;28;20028;-73
2024/03/02 01:19:15;;;;;;;71.90;32.97;;;;;;;7.94;100.00;99948.00;5016008;28;20125;-72
2024/03/02 01:21:40;;;;;;;62.58;31.20;;;;;;;8.07;100.00;99951.00;5006068;28;20037;-72
2024/03/02 01:24:06;;;;;;;62.13;31.08;;;;;;;8.12;100.00;99945.19;5014498;28;20029;-72
2024/03/02 01:26:31;;;;;;;66.93;32.07;;;;;;;8.16;100.00;99938.53;5011168;28;20057;-72
2024/03/02 01:28:56;;;;;;;66.97;32.43;;;;;;;8.17;100.00;99937.53;5007696;28;20275;-73
2024/03/02 01:31:22;;;;;;;72.40;32.60;;;;;;;8.13;100.00;99926.41;5006114;28;20025;-72
2024/03/02 01:33:47;;;;;;;65.23;32.40;;;;;;;8.13;100.00;99930.91;5006051;28;20879;-72
2024/03/02 01:36:13;;;;;;;69.97;32.50;;;;;;;8.15;100.00;99935.06;4989825;28;20121;-72
2024/03/02 01:38:38;;;;;;;71.05;32.35;;;;;;;7.96;100.00;99891.03;5005768;28;20061;-75
2024/03/02 01:41:04;;;;;;;69.07;29.83;;;;;;;7.97;100.00;99911.28;5006094;28;20036;-74
2024/03/02 01:43:29;;;;;;;73.67;31.60;;;;;;;7.75;100.00;99894.19;5005824;28;20272;-72
2024/03/02 01:45:56;;;;;;;77.07;32.57;;;;;;;7.85;100.00;99923.25;5005489;28;20743;-72
2024/03/02 01:48:21;;;;;;;75.35;34.05;;;;;;;7.80;100.00;99904.31;5005518;28;20040;-71
2024/03/02 01:50:47;;;;;;;60.93;31.83;;;;;;;7.73;100.00;99904.13;4989325;28;20017;-72
2024/03/02 01:53:12;;;;;;;64.83;32.00;;;;;;;7.83;100.00;99919.91;5007140;28;20029;-73
2024/03/02 01:55:38;;;;;;;65.50;31.33;;;;;;;7.91;100.00;99917.25;4989180;28;20021;-72
2024/03/02 01:58:03;;;;;;;69.43;32.30;;;;;;;7.49;100.00;99893.47;5006643;28;20690;-72
2024/03/02 02:00:30;;;;;;;69.95;31.67;;;;;;;7.58;100.00;99922.53;5007052;28;20034;-75
2024/03/02 02:02:55;;;;;;;75.88;34.67;;;;;;;7.60;100.00;99930.34;4988982;28;20076;-72
2024/03/02 02:05:21;;;;;;;68.43;32.33;;;;;;;7.41;100.00;99904.91;5005305;28;20140;-72
2024/03/02 02:07:46;;;;;;;75.97;35.13;;;;;;;7.53;100.00;99939.97;5005088;28;20651;-72
2024/03/02 02:10:12;;;;;;;80.60;34.83;;;;;;;7.43;100.00;99934.78;5005656;28;20087;-72
2024/03/02 02:12:38;;;;;;;72.47;34.35;;;;;;;7.57;100.00;99931.50;5005539;28;20125;-72
2024/03/02 02:15:27;;;;;;;74.50;33.92;;;;;;;7.31;100.00;99913.00;5006120;28;20045;-75
2024/03/02 02:17:57;;;;;;;77.60;32.97;;;;;;;7.38;100.00;99927.31;5005601;28;20034;-74
2024/03/02 02:20:23;;;;;;;74.68;35.83;;;;;;;7.50;100.00;99934.97;5006564;28;20515;-72
2024/03/02 02:22:58;;;;;;;75.85;33.78;;;;;;;7.37;100.00;99915.03;5006426;28;20022;-74
2024/03/02 02:25:24;;;;;;;75.25;33.13;;;;;;;7.30;100.00;99908.69;5006358;28;20463;-75
2024/03/02 02:27:49;;;;;;;84.80;37.05;;;;;;;7.25;100.00;99908.34;5006152;28;20038;-72
2024/03/02 02:30:19;;;;;;;78.28;35.05;;;;;;;7.15;100.00;99919.09;5005362;28;20041;-72
2024/03/02 02:32:45;;;;;;;76.63;35.95;;;;;;;7.23;100.00;99936.03;5005522;28;20069;-74
2024/03/02 02:35:10;;;;;;;82.23;35.53;;;;;;;7.31;100.00;99925.47;5004993;28;20025;-72
2024/03/02 02:37:35;;;;;;;76.37;33.13;;;;;;;7.05;100.00;99905.13;5004857;28;20030;-73
2024/03/02 02:40:01;;;;;;;77.07;37.57;;;;;;;7.11;100.00;99917.75;5005116;28;20068;-72
2024/03/02 02:42:26;;;;;;;75.18;34.63;;;;;;;7.27;100.00;99940.88;5002250;28;20026;-71
2024/03/02 02:44:51;;;;;;;78.83;35.03;;;;;;;7.24;100.00;99930.59;5005159;28;20558;-73
2024/03/02 02:47:17;;;;;;;78.37;35.07;;;;;;;7.43;100.00;99944.59;5004519;28;20025;-71
2024/03/02 02:49:42;;;;;;;71.67;33.77;;;;;;;7.47;100.00;99920.19;5021929;28;20037;-72
2024/03/02 02:52:07;;;;;;;78.70;35.73;;;;;;;7.52;100.00;99917.06;5025721;28;20103;-73
2024/03/02 02:54:33;;;;;;;76.00;34.93;;;;;;;7.25;100.00;99887.09;5007682;28;20830;-72
2024/03/02 02:56:59;;;;;;;80.13;33.27;;;;;;;7.06;100.00;99890.03;5000709;28;20052;-72
2024/03/02 02:59:24;;;;;;;77.00;34.35;;;;;;;7.10;100.00;99907.31;5022341;28;20321;-72
2024/03/02 03:01:51;;;;;;;72.83;33.10;;;;;;;6.84;100.00;99891.44;5005957;28;20033;-72
2024/03/02 03:04:17;;;;;;;83.60;35.08;;;;;;;6.98;100.00;99931.47;5025475;28;20271;-74
2024/03/02 03:06:43;;;;;;;75.27;35.13;;;;;;;6.95;100.00;99923.00;5023878;28;20037;-72
2024/03/02 03:09:10;;;;;;;84.35;37.13;;;;;;;7.07;100.00;99935.00;5013460;28;20090;-72
2024/03/02 03:11:36;;;;;;;81.72;36.45;;;;;;;7.02;100.00;99909.91;5020723;28;20068;-73
2024/03/02 03:14:01;;;;;;;73.28;33.58;;;;;;;6.95;100.00;99921.19;5020408;28;20489;-74
2024/03/02 03:16:27;;;;;;;77.22;33.50;;;;;;;7.00;100.00;99918.06;4996886;28;20029;-72
2024/03/02 03:18:53;;;;;;;82.63;36.67;;;;;;;6.88;100.00;99906.03;5018131;28;20030;-71
2024/03/02 03:21:18;;;;;;;75.88;32.78;;;;;;;6.79;100.00;99905.19;5019439;28;20033;-72
2024/03/02 03:23:44;;;;;;;73.57;33.40;;;;;;;7.01;100.00;99929.50;5017433;28;20867;-73
2024/03/02 03:26:09;;;;;;;77.57;34.13;;;;;;;6.80;100.00;99900.72;5019302;28;20119;-75
2024/03/02 03:28:34;;;;;;;79.13;34.43;;;;;;;6.95;100.00;99918.53;5028471;28;20288;-72
2024/03/02 03:31:00;;;;;;;83.47;37.20;;;;;;;6.92;100.00;99913.53;5028161;28;20025;-73
2024/03/02 03:33:25;;;;;;;77.93;34.73;;;;;;;6.91;100.00;99916.34;5028208;28;20785;-72
2024/03/02 03:35:50;;;;;;;86.83;40.47;;;;;;;6.93;100.00;99919.66;5027614;28;20145;-72
2024/03/02 03:38:16;;;;;;;79.47;37.57;;;;;;;6.82;100.00;99935.88;5029248;28;20334;-72
2024/03/02 03:40:42;;;;;;;76.13;34.30;;;;;;;6.84;100.00;99920.63;5029625;28;20029;-72
2024/03/02 03:43:07;;;;;;;77.28;35.20;;;;;;;6.58;100.00;99913.53;5029240;28;20084;-72
2024/03/02 03:45:33;;;;;;;78.07;36.00;;;;;;;6.65;100.00;99934.94;5027314;28;20021;-73
2024/03/02 03:47:58;;;;;;;84.35;35.90;;;;;;;6.62;100.00;99936.09;5029000;28;20044;-75
2024/03/02 03:50:23;;;;;;;79.90;36.00;;;;;;;6.85;100.00;99941.69;5029140;28;20076;-74
2024/03/02 03:52:49;;;;;;;81.82;36.67;;;;;;;6.76;100.00;99911.63;5011281;28;20775;-74
2024/03/02 03:55:14;;;;;;;89.07;38.87;;;;;;;6.80;100.00;99924.59;5025146;28;20051;-73
2024/03/02 03:57:40;;;;;;;100.50;39.72;;;;;;;6.66;100.00;99921.53;5028578;28;20032;-71
2024/03/02 04:00:06;;;;;;;82.73;35.63;;;;;;;6.82;100.00;99935.88;5027739;28;20029;-71
2024/03/02 04:02:38;;;;;;;82.60;36.97;;;;;;;6.71;100.00;99927.19;5021060;28;20037;-71
2024/03/02 04:05:08;;;;;;;81.65;35.80;;;;;;;6.66;100.00;99926.84;5025971;28;20041;-73
2024/03/02 04:07:39;;;;;;;81.55;36.67;;;;;;;6.71;100.00;99940.44;5027268;28;20132;-75
2024/03/02 04:10:09;;;;;;;92.45;38.28;;;;;;;6.52;100.00;99930.88;5022350;28;20033;-72
2024/03/02 04:12:36;;;;;;;87.75;39.25;;;;;;;6.65;100.00;99949.06;5023036;28;20057;-72
2024/03/02 04:15:03;;;;;;;94.50;40.00;;;;;;;6.61;100.00;99933.59;5010792;28;20611;-71
2024/03/02 04:17:30;;;;;;;87.70;39.42;;;;;;;6.49;100.00;99930.38;5026833;28;20078;-73
2024/03/02 04:19:56;;;;;;;85.57;37.80;;;;;;;6.62;100.00;99952.00;5018190;28;20022;-71
2024/03/02 04:22:21;;;;;;;94.85;42.08;;;;;;;6.47;100.00;99935.00;5024604;28;20091;-72
2024/03/02 04:24:46;;;;;;;93.80;40.97;;;;;;;6.54;100.00;99951.97;5027241;28;20017;-71
2024/03/02 04:27:12;;;;;;;97.43;41.70;;;;;;;6.51;100.00;99939.03;5018245;28;20037;-71
2024/03/02 04:29:37;;;;;;;91.67;40.40;;;;;;;6.59;100.00;99947.00;5028615;28;20272;-72
2024/03/02 04:32:03;;;;;;;88.20;38.83;;;;;;;6.51;100.00;99944.31;5027093;28;20068;-72
2024/03/02 04:34:28;;;;;;;93.75;39.97;;;;;;;6.52;100.00;99943.31;5027012;28;20479;-74
2024/03/02 04:36:53;;;;;;;90.43;42.97;;;;;;;6.49;100.00;99947.13;5026127;28;20124;-73
2024/03/02 04:39:19;;;;;;;89.07;40.47;;;;;;;6.72;100.00;99968.66;5018647;28;20025;-72
2024/03/02 04:41:44;;;;;;;85.88;38.67;;;;;;;6.58;100.00;99955.13;5028394;28;20751;-72
2024/03/02 04:44:09;;;;;;;93.85;41.65;;;;;;;6.53;100.00;99953.78;5026852;28;20072;-72
2024/03/02 04:46:35;;;;;;;93.00;41.43;;;;;;;6.56;100.00;99952.63;5026320;28;20100;-72
2024/03/02 04:49:00;;;;;;;92.90;39.57;;;;;;;6.60;100.00;99961.09;5026817;28;20670;-72
2024/03/02 04:51:26;;;;;;;92.47;40.73;;;;;;;6.57;100.00;99951.63;5027915;28;20029;-72
2024/03/02 04:53:51;;;;;;;101.60;41.13;;;;;;;6.67;100.00;99965.66;5018620;28;20511;-74
2024/03/02 04:56:40;;;;;;;92.87;43.07;;;;;;;6.75;100.00;99964.84;5026575;28;20030;-72
2024/03/02 04:59:05;;;;;;;80.88;38.80;;;;;;;6.65;100.00;99940.25;5024819;28;20113;-72
2024/03/02 05:01:31;;;;;;;89.78;40.70;;;;;;;6.70;100.00;99937.97;5015960;28;20524;-72
2024/03/02 05:03:56;;;;;;;88.03;39.93;;;;;;;6.59;100.00;99941.72;5026004;28;20036;-72
2024/03/02 05:06:22;;;;;;;82.15;37.58;;;;;;;6.66;100.00;99947.22;5026471;28;20112;-74
2024/03/02 05:08:48;;;;;;;93.55;41.58;;;;;;;6.60;100.00;99931.94;5009987;28;20393;-71
2024/03/02 05:13:57;;;;;;;89.95;40.13;;;;;;;6.49;100.00;99941.81;5027386;28;20099;-71
2024/03/02 05:16:22;;;;;;;85.87;39.47;;;;;;;6.61;100.00;99942.38;5026248;28;20938;-72
2024/03/02 05:18:48;;;;;;;89.87;38.50;;;;;;;6.39;100.00;99924.34;5001498;28;20033;-74
2024/03/02 05:21:13;;;;;;;87.33;39.53;;;;;;;6.63;100.00;99935.13;5023804;28;20052;-75
2024/03/02 05:23:39;;;;;;;89.33;37.60;;;;;;;6.53;100.00;99921.09;5023145;28;20033;-75
2024/03/02 05:26:04;;;;;;;88.05;37.92;;;;;;;6.52;100.00;99930.06;5027105;28;20068;-73
2024/03/02 05:28:29;;;;;;;86.80;37.97;;;;;;;6.40;100.00;99929.50;5026147;28;20045;-72
2024/03/02 05:30:55;;;;;;;82.72;39.40;;;;;;;6.65;100.00;99940.25;5027305;28;20030;-72
2024/03/02 05:33:22;;;;;;;93.63;41.28;;;;;;;6.45;100.00;99921.06;5026349;28;20127;-72
2024/03/02 05:35:49;;;;;;;87.53;39.38;;;;;;;6.49;100.00;99935.69;5023819;28;20029;-71
2024/03/02 05:38:15;;;;;;;90.20;39.47;;;;;;;6.45;100.00;99934.31;5027327;28;20021;-72
2024/03/02 05:40:40;;;;;;;93.93;40.50;;;;;;;6.44;100.00;99937.94;5027180;28;20029;-72
2024/03/02 05:43:06;;;;;;;96.97;42.63;;;;;;;6.44;100.00;99928.19;5009378;28;20036;-72
2024/03/02 05:45:31;;;;;;;90.20;38.63;;;;;;;6.58;100.00;99937.41;5025823;28;20044;-72
2024/03/02 05:47:57;;;;;;;77.70;37.60;;;;;;;6.60;100.00;99926.63;5009142;28;20040;-72
2024/03/02 05:50:22;;;;;;;83.78;39.05;;;;;;;6.60;100.00;99922.13;5009220;28;20088;-73
2024/03/02 05:52:47;;;;;;;81.33;37.83;;;;;;;6.50;100.00;99906.34;5025378;28;20091;-72
2024/03/02 05:55:13;;;;;;;93.50;41.57;;;;;;;6.39;100.00;99921.69;5022801;28;20048;-72
2024/03/02 06:00:10;;;;;;;90.60;39.22;;;;;;;6.40;100.00;99937.44;5026511;28;20121;-72
2024/03/02 06:02:40;;;;;;;92.63;39.35;;;;;;;6.39;100.00;99940.25;5009272;28;20030;-73
2024/03/02 06:05:07;;;;;;;85.10;36.08;;;;;;;6.31;100.00;99935.72;5026207;28;20038;-72
2024/03/02 06:07:32;;;;;;;97.47;40.13;;;;;;;6.37;100.00;99943.06;5026161;28;20017;-72
2024/03/02 06:09:58;;;;;;;97.75;42.13;;;;;;;6.45;100.00;99944.94;5026488;28;20040;-72
2024/03/02 06:12:23;;;;;;;82.70;37.65;;;;;;;6.20;100.00;99931.50;5025361;28;20135;-74
2024/03/02 06:14:49;;;;;;;88.30;39.20;;;;;;;6.26;100.00;99945.97;5022527;28;20034;-72
2024/03/02 06:17:14;;;;;;;98.70;43.43;;;;;;;6.27;100.00;99945.78;5018055;28;20021;-72
2024/03/02 06:19:40;;;;;;;95.97;42.60;;;;;;;6.29;100.00;99948.28;5017930;28;20435;-71
2024/03/02 06:22:05;;;;;;;112.50;43.42;;;;;;;6.24;100.00;99948.75;5020292;28;20036;-72
2024/03/02 06:24:31;;;;;;;90.93;39.67;;;;;;;6.29;100.00;99957.06;5024958;28;20384;-73
2024/03/02 06:26:56;;;;;;;94.27;42.43;;;;;;;6.28;100.00;99963.38;5024715;28;20407;-72
2024/03/02 06:29:21;;;;;;;100.23;44.10;;;;;;;6.48;100.00;99976.44;5025122;28;20068;-72
2024/03/02 06:31:47;;;;;;;101.13;43.70;;;;;;;6.45;100.00;99956.38;5020791;28;20271;-74
2024/03/02 06:34:12;;;;;;;90.57;39.67;;;;;;;6.39;100.00;99962.31;5019396;28;20036;-72
2024/03/02 06:36:39;;;;;;;98.80;42.37;;;;;;;6.63;100.00;99972.25;5008088;28;20040;-73
2024/03/02 06:39:05;;;;;;;92.75;39.88;;;;;;;6.78;100.00;99971.66;5025864;28;20267;-73
2024/03/02 06:41:30;;;;;;;80.63;39.63;;;;;;;6.68;100.00;99946.06;5024351;28;20546;-72
2024/03/02 06:43:59;;;;;;;86.93;39.28;;;;;;;6.53;100.00;99948.47;5015024;28;20350;-73
2024/03/02 06:46:25;;;;;;;84.47;38.28;;;;;;;6.38;100.00;99934.13;5024652;28;20030;-73
2024/03/02 06:48:50;;;;;;;90.10;41.17;;;;;;;6.60;100.00;99959.28;5024620;28;20084;-73
2024/03/02 06:51:16;;;;;;;92.97;41.00;;;;;;;6.44;100.00;99948.56;5024564;28;20032;-73
2024/03/02 06:53:41;;;;;;;86.03;40.10;;;;;;;6.57;100.00;99950.81;5025810;28;20607;-73
2024/03/02 06:56:07;;;;;;;92.60;40.83;;;;;;;6.67;100.00;99951.53;5024525;28;20116;-73
2024/03/02 06:58:33;;;;;;;89.75;39.22;;;;;;;6.82;100.00;99943.84;5025558;28;20039;-73
2024/03/02 07:01:00;;;;;;;79.63;38.40;;;;;;;6.79;100.00;99930.88;5024507;28;20701;-73
2024/03/02 07:03:25;;;;;;;93.55;41.17;;;;;;;6.38;100.00;99888.22;5025297;28;20503;-73
2024/03/02 07:05:51;;;;;;;84.07;40.60;;;;;;;6.40;100.00;99915.41;5024439;28;20021;-73
2024/03/02 07:08:16;;;;;;;78.55;37.92;;;;;;;6.53;100.00;99937.03;5007328;28;20022;-73
2024/03/02 07:10:42;;;;;;;89.30;38.60;;;;;;;6.58;100.00;99931.25;5025909;28;20396;-73
2024/03/02 07:13:07;;;;;;;93.60;43.00;;;;;;;6.85;100.00;99956.78;5007975;28;20042;-73
2024/03/02 07:18:17;;;;;;;82.95;38.22;;;;;;;6.83;100.00;99918.97;5016501;28;20038;-73
2024/03/02 07:20:42;;;;;;;81.93;37.28;;;;;;;6.79;100.00;99918.47;5015523;28;20034;-73
2024/03/02 07:23:09;;;;;;;73.90;35.60;;;;;;;6.87;100.00;99909.69;5020230;28;20068;-73
2024/03/02 07:25:34;;;;;;;86.07;38.45;;;;;;;6.92;100.00;99918.00;5025264;28;20045;-73
2024/03/02 07:28:00;;;;;;;78.75;36.20;;;;;;;7.00;100.00;99922.50;5023560;28;20026;-73
2024/03/02 07:30:25;;;;;;;71.32;35.17;;;;;;;6.87;100.00;99907.03;5025322;28;20041;-73
2024/03/02 07:32:51;;;;;;;75.33;35.53;;;;;;;7.14;100.00;99922.75;5024140;28;20048;-74
2024/03/02 07:35:17;;;;;;;72.67;33.23;;;;;;;7.09;100.00;99909.09;5013054;28;20061;-73
2024/03/02 07:37:43;;;;;;;74.18;34.65;;;;;;;6.95;100.00;99891.16;5017965;28;20275;-73
2024/03/02 07:40:11;;;;;;;70.78;36.10;;;;;;;6.89;100.00;99900.59;5019851;28;20038;-73
2024/03/02 07:42:40;;;;;;;70.53;32.75;;;;;;;7.02;100.00;99916.06;5023956;28;20420;-73
2024/03/02 07:45:06;;;;;;;73.47;33.88;;;;;;;7.00;100.00;99890.66;5024955;28;20025;-73
2024/03/02 07:47:33;;;;;;;70.95;34.45;;;;;;;6.90;100.00;99890.78;5025057;28;20037;-73
2024/03/02 07:49:59;;;;;;;74.95;34.58;;;;;;;7.13;100.00;99921.06;5016752;28;20076;-73
2024/03/02 07:52:24;;;;;;;69.87;34.00;;;;;;;7.22;100.00;99915.81;5007677;28;20091;-73
2024/03/02 07:54:49;;;;;;;71.80;32.90;;;;;;;7.32;100.00;99903.22;5021430;28;20811;-73
2024/03/02 07:57:15;;;;;;;75.53;33.63;;;;;;;7.30;100.00;99890.09;5024608;28;20022;-73
2024/03/02 07:59:40;;;;;;;65.37;32.07;;;;;;;7.33;100.00;99891.63;5017563;28;20037;-74
2024/03/02 08:02:06;;;;;;;69.30;32.00;;;;;;;7.14;100.00;99884.75;5024945;28;20033;-73
2024/03/02 08:04:32;;;;;;;;;;;;;;;7.44;100.00;99912.53;5024182;28;20371;-73
2024/03/02 08:06:57;;;;;;;74.32;34.47;;;;;;;7.51;100.00;99889.63;5023376;28;20035;-73
2024/03/02 08:09:23;;;;;;;73.15;34.08;;;;;;;7.72;100.00;99889.16;5025288;28;20030;-73
2024/03/02 08:11:48;;;;;;;64.57;33.07;;;;;;;7.69;100.00;99864.78;5016944;28;20112;-73
2024/03/02 08:14:14;;;;;;;64.65;32.03;;;;;;;7.88;100.00;99872.41;5025751;28;20388;-73
2024/03/02 08:16:40;;;;;;;70.72;33.15;;;;;;;7.80;100.00;99859.13;5019752;28;20100;-74
2024/03/02 08:19:05;;;;;;;71.20;35.00;;;;;;;7.94;100.00;99845.19;5028413;28;20472;-73
2024/03/02 08:21:32;;;;;;;75.07;33.47;;;;;;;7.60;100.00;99801.00;5028505;28;20021;-73
2024/03/02 08:23:58;;;;;;;71.68;32.80;;;;;;;7.81;100.00;99840.34;5028509;28;20132;-73
2024/03/02 08:26:23;;;;;;;;;;;;;;;8.04;100.00;99853.78;5027474;28;20091;-73
2024/03/02 08:28:49;;;;;;;66.60;32.55;;;;;;;7.59;100.00;99802.00;5026835;28;20011;-73
2024/03/02 08:31:14;;;;;;;73.20;33.60;;;;;;;7.59;100.00;99839.19;5026991;28;20449;-73
2024/03/02 08:33:40;;;;;;;80.97;36.13;;;;;;;7.73;100.00;99839.53;5028511;28;20276;-73
2024/03/02 08:36:06;;;;;;;71.35;32.97;;;;;;;8.05;100.00;99854.63;5027779;28;20334;-73
2024/03/02 08:38:32;;;;;;;74.40;34.35;;;;;;;7.82;100.00;99809.31;4999847;28;20429;-73
2024/03/02 08:40:57;;;;;;;71.75;33.10;;;;;;;7.88;100.00;99810.47;5019980;28;20100;-73
2024/03/02 08:43:23;;;;;;;69.67;34.93;;;;;;;8.14;100.00;99834.19;5022912;28;20689;-73
2024/03/02 08:45:49;;;;;;;84.70;37.97;;;;;;;8.37;100.00;99816.50;5017777;28;20416;-73
2024/03/02 08:48:14;;;;;;;63.55;33.80;;;;;;;8.19;100.00;99811.41;5017863;28;20050;-73
2024/03/02 08:50:40;;;;;;;63.38;30.95;;;;;;;8.86;100.00;99858.94;5026502;28;20395;-73
2024/03/02 08:53:05;;;;;;;71.07;31.93;;;;;;;9.01;100.00;99792.50;5018302;28;20495;-73
2024/03/02 08:55:31;;;;;;;65.80;32.00;;;;;;;9.02;100.00;99745.38;5026532;28;20034;-73
2024/03/02 08:57:56;;;;;;;63.60;31.83;;;;;;;8.73;100.00;99711.44;5026632;28;20029;-73
2024/03/02 09:00:22;;;;;;;64.78;31.60;;;;;;;8.56;100.00;99705.41;5026511;28;20092;-73
2024/03/02 09:02:48;;;;;;;62.35;29.30;;;;;;;8.99;100.00;99743.06;5010084;28;20033;-73
2024/03/02 09:05:13;;;;;;;55.00;30.77;;;;;;;8.98;100.00;99728.09;5026093;28;20064;-74
2024/03/02 09:07:39;;;;;;;56.92;28.17;;;;;;;9.27;100.00;99701.59;5027271;28;20029;-73
2024/03/02 09:10:05;;;;;;;57.93;28.00;;;;;;;9.11;100.00;99645.81;5027550;28;20108;-74
2024/03/02 09:12:32;;;;;;;56.63;29.08;;;;;;;8.99;100.00;99634.75;5027755;28;20041;-73
2024/03/02 09:14:57;;;;;;;53.03;27.38;;;;;;;9.19;100.00;99621.75;5027233;28;20118;-73
2024/03/02 09:17:23;;;;;;;52.85;27.27;;;;;;;9.58;100.00;99636.69;5019108;28;20136;-73
2024/03/02 09:19:48;;;;;;;50.47;27.02;;;;;;;9.54;100.00;99512.00;5019320;28;20065;-73
2024/03/02 09:22:14;;;;;;;49.37;25.23;;;;;;;9.16;100.00;99402.94;5017742;28;20128;-73
2024/03/02 09:24:39;;;;;;;45.23;23.63;;;;;;;9.41;100.00;99456.69;5008825;28;20038;-74
2024/03/02 09:27:05;;;;;;;47.70;25.10;;;;;;;9.46;100.00;99396.53;5026415;28;20291;-73
2024/03/02 09:29:31;;;;;;;;;;;;;;;9.64;100.00;99424.59;5026373;28;20033;-73
2024/03/02 09:31:56;;;;;;;48.10;23.65;;;;;;;9.97;100.00;99408.09;5019102;28;19913;-73
2024/03/02 09:34:22;;;;;;;48.77;26.80;;;;;;;9.44;100.00;99257.38;5023467;28;20046;-73
2024/03/02 09:36:47;;;;;;;51.17;26.45;;;;;;;9.37;100.00;99410.16;5020257;28;20357;-73
2024/03/02 09:39:14;;;;;;;52.67;26.58;;;;;;;9.55;100.00;99425.72;5021786;28;20072;-73
2024/03/02 09:41:39;;;;;;;;;;;;;;;10.11;100.00;99487.19;5027203;28;20060;-73
2024/03/02 09:44:05;;;;;;;53.88;26.52;;;;;;;10.69;100.00;99369.69;5025174;28;19952;-73
2024/03/02 09:46:31;;;;;;;49.72;26.52;;;;;;;11.76;100.00;99350.31;5021037;28;20042;-73
2024/03/02 09:48:56;;;;;;;46.55;24.58;;;;;;;12.76;100.00;99144.06;5022980;28;20082;-74
2024/03/02 09:51:23;;;;;;;41.03;22.33;;;;;;;12.53;100.00;98809.19;5025773;28;20053;-74
2024/03/02 09:53:49;;;;;;;;;;;;;;;12.96;100.00;98797.56;5027189;28;20094;-74
2024/03/02 09:56:15;;;;;;;42.33;21.98;;;;;;;12.37;100.00;98658.06;5016865;28;19913;-73
2024/03/02 09:58:42;;;;;;;45.78;20.90;;;;;;;11.96;100.00;98587.34;5025366;28;20079;-73
2024/03/02 10:01:07;;;;;;;;;;;;;;;11.79;100.00;98536.31;5009060;28;20484;-73
2024/03/02 10:03:33;;;;;;;43.13;21.80;;;;;;;11.62;100.00;98538.78;5025219;28;19924;-74
2024/03/02 10:06:18;;;;;;;37.90;22.02;;;;;;;11.67;100.00;98583.53;5026347;28;20037;-74
2024/03/02 10:08:44;;;;;;;36.00;21.07;;;;;;;11.89;100.00;98833.41;5025911;28;20037;-74
2024/03/02 10:11:09;;;;;;;39.93;22.20;;;;;;;11.86;100.00;98795.56;5024819;28;20045;-73
2024/03/02 10:13:34;;;;;;;42.13;22.23;;;;;;;11.88;100.00;98670.53;5008944;28;20103;-74
2024/03/02 10:16:12;;;;;;;35.50;19.80;;;;;;;11.58;100.00;98589.16;5012788;28;20057;-74
2024/03/02 10:18:37;;;;;;;40.00;20.88;;;;;;;12.01;100.00;98657.00;5008349;28;20021;-74
2024/03/02 10:21:13;;;;;;;42.13;21.47;;;;;;;11.72;100.00;98477.56;5004745;28;20029;-74
2024/03/02 10:23:38;;;;;;;;;;;;;;;11.11;100.00;98476.63;4985404;28;20034;-73
2024/03/02 10:26:17;;;;;;;37.58;20.42;;;;;;;11.49;100.00;98520.22;5009938;28;19966;-74
2024/03/02 10:28:47;;;;;;;38.72;22.13;;;;;;;11.51;100.00;98599.09;5006626;28;20939;-73
2024/03/02 10:31:13;;;;;;;40.22;21.42;;;;;;;11.45;100.00;98588.47;5008315;28;20102;-73
2024/03/02 10:33:39;;;;;;;38.05;20.63;;;;;;;12.54;100.00;98750.06;5014306;28;20030;-74
2024/03/02 10:36:05;;;;;;;41.80;21.02;;;;;;;11.47;100.00;98608.63;5012426;28;20082;-73
2024/03/02 10:38:31;;;;;;;42.20;22.20;;;;;;;12.04;100.00;98694.84;5004265;28;20393;-74
2024/03/02 10:40:59;;;;;;;33.97;21.15;;;;;;;12.92;100.00;98751.66;5012337;28;20041;-74
2024/03/02 10:43:26;;;;;;;35.65;19.75;;;;;;;12.59;100.00;98637.78;5009083;28;20038;-73
2024/03/02 10:45:52;;;;;;;37.65;20.38;;;;;;;12.81;100.00;98398.97;5000103;28;20125;-73
2024/03/02 10:48:18;;;;;;;41.35;22.05;;;;;;;11.37;100.00;98203.03;5005056;28;20975;-73
2024/03/02 10:50:43;;;;;;;36.53;21.40;;;;;;;11.49;100.00;98549.59;5005992;28;20042;-73
2024/03/02 10:53:09;;;;;;;33.03;18.57;;;;;;;11.06;100.00;98563.78;5004670;28;20572;-73
2024/03/02 10:55:34;;;;;;;40.27;20.67;;;;;;;11.76;100.00;98812.94;4998057;28;20858;-73
2024/03/02 10:58:02;;;;;;;35.37;19.83;;;;;;;11.18;100.00;98599.41;5003593;28;20030;-73
2024/03/02 11:00:32;;;;;;;38.97;21.17;;;;;;;11.11;100.00;98770.38;5005105;28;20045;-73
2024/03/02 11:03:11;;;;;;;35.80;18.90;;;;;;;11.62;100.00;98835.44;5002997;28;20073;-73
2024/03/02 11:05:40;;;;;;;30.30;18.10;;;;;;;11.44;100.00;98774.69;5001005;28;20106;-73
2024/03/02 11:08:07;;;;;;;36.25;20.30;;;;;;;11.77;100.00;98730.88;4999946;28;20026;-73
2024/03/02 11:11:04;;;;;;;34.13;18.48;;;;;;;11.40;100.00;98720.91;5005387;28;20040;-73
2024/03/02 11:13:34;;;;;;;33.13;18.70;;;;;;;12.00;100.00;98799.81;5005520;28;20399;-73
2024/03/02 11:16:05;;;;;;;35.97;18.60;;;;;;;11.51;100.00;98644.53;5003980;28;20038;-73
2024/03/02 11:18:32;;;;;;;33.17;17.70;;;;;;;11.62;100.00;98750.72;5004636;28;20480;-73
2024/03/02 11:20:59;;;;;;;36.00;18.85;;;;;;;11.64;100.00;98707.75;5016889;28;20164;-73
2024/03/02 11:23:33;;;;;;;;;;;;;;;11.59;100.00;98779.75;5025668;28;20025;-73